sensor_id;sensor_type;location;lat;lon;timestamp;P1;durP1;ratioP1;P2;durP2;ratioP2
52764;SDS011;38650;44.536;18.664;2022-09-27T00:02:19;8.85;;;7.80;;
52764;SDS011;38650;44.536;18.664;2022-09-27T00:04:45;8.40;;;6.93;;
52764;SDS011;38650;44.536;18.664;2022-09-27T00:07:11;6.85;;;6.22;;
52764;SDS011;38650;44.536;18.664;2022-09-27T00:09:36;6.43;;;5.70;;
52764;SDS011;38650;44.536;18.664;2022-09-27T00:12:02;6.88;;;6.18;;
52764;SDS011;38650;44.536;18.664;2022-09-27T00:14:28;7.43;;;6.13;;
52764;SDS011;38650;44.536;18.664;2022-09-27T00:16:54;11.85;;;9.30;;
52764;SDS011;38650;44.536;18.664;2022-09-27T00:19:20;8.60;;;7.70;;
52764;SDS011;38650;44.536;18.664;2022-09-27T00:21:48;8.60;;;7.70;;
52764;SDS011;38650;44.536;18.664;2022-09-27T00:24:17;8.32;;;7.13;;
52764;SDS011;38650;44.536;18.664;2022-09-27T00:26:45;11.95;;;9.27;;
52764;SDS011;38650;44.536;18.664;2022-09-27T00:29:12;9.23;;;8.27;;
52764;SDS011;38650;44.536;18.664;2022-09-27T00:31:39;8.23;;;7.45;;
52764;SDS011;38650;44.536;18.664;2022-09-27T00:34:05;8.70;;;7.80;;
52764;SDS011;38650;44.536;18.664;2022-09-27T00:36:32;7.72;;;6.93;;
52764;SDS011;38650;44.536;18.664;2022-09-27T00:38:58;9.57;;;8.23;;
52764;SDS011;38650;44.536;18.664;2022-09-27T00:41:27;7.90;;;6.90;;
52764;SDS011;38650;44.536;18.664;2022-09-27T00:43:58;7.03;;;6.33;;
52764;SDS011;38650;44.536;18.664;2022-09-27T00:49:26;8.20;;;6.68;;
52764;SDS011;38650;44.536;18.664;2022-09-27T00:52:10;11.07;;;8.52;;
52764;SDS011;38650;44.536;18.664;2022-09-27T00:54:41;9.45;;;7.55;;
52764;SDS011;38650;44.536;18.664;2022-09-27T00:57:11;10.65;;;9.27;;
52764;SDS011;38650;44.536;18.664;2022-09-27T00:59:38;8.88;;;7.97;;
52764;SDS011;38650;44.536;18.664;2022-09-27T01:04:35;7.57;;;6.85;;
52764;SDS011;38650;44.536;18.664;2022-09-27T01:07:03;7.55;;;6.85;;
52764;SDS011;38650;44.536;18.664;2022-09-27T01:09:29;8.98;;;6.68;;
52764;SDS011;38650;44.536;18.664;2022-09-27T01:28:21;13.57;;;9.98;;
52764;SDS011;38650;44.536;18.664;2022-09-27T01:41:38;9.77;;;8.77;;
52764;SDS011;38650;44.536;18.664;2022-09-27T01:44:25;9.32;;;8.00;;
52764;SDS011;38650;44.536;18.664;2022-09-27T01:47:02;8.82;;;7.47;;
52764;SDS011;38650;44.536;18.664;2022-09-27T01:52:19;8.95;;;7.55;;
52764;SDS011;38650;44.536;18.664;2022-09-27T01:54:52;11.55;;;7.55;;
52764;SDS011;38650;44.536;18.664;2022-09-27T01:57:23;7.22;;;6.53;;
52764;SDS011;38650;44.536;18.664;2022-09-27T01:59:56;9.70;;;6.72;;
52764;SDS011;38650;44.536;18.664;2022-09-27T02:02:26;7.30;;;6.28;;
52764;SDS011;38650;44.536;18.664;2022-09-27T02:04:55;8.07;;;6.22;;
52764;SDS011;38650;44.536;18.664;2022-09-27T02:07:26;11.93;;;6.03;;
52764;SDS011;38650;44.536;18.664;2022-09-27T02:09:58;9.30;;;6.45;;
52764;SDS011;38650;44.536;18.664;2022-09-27T02:12:30;6.45;;;5.50;;
52764;SDS011;38650;44.536;18.664;2022-09-27T02:15:08;5.45;;;4.95;;
52764;SDS011;38650;44.536;18.664;2022-09-27T02:20:38;6.80;;;5.43;;
52764;SDS011;38650;44.536;18.664;2022-09-27T02:23:14;19.20;;;8.05;;
52764;SDS011;38650;44.536;18.664;2022-09-27T02:25:53;6.10;;;5.30;;
52764;SDS011;38650;44.536;18.664;2022-09-27T02:30:59;10.30;;;7.53;;
52764;SDS011;38650;44.536;18.664;2022-09-27T02:33:27;6.68;;;5.97;;
52764;SDS011;38650;44.536;18.664;2022-09-27T02:35:57;6.35;;;5.75;;
52764;SDS011;38650;44.536;18.664;2022-09-27T02:38:23;7.63;;;6.32;;
52764;SDS011;38650;44.536;18.664;2022-09-27T02:40:48;8.90;;;7.00;;
52764;SDS011;38650;44.536;18.664;2022-09-27T02:43:15;6.43;;;5.72;;
52764;SDS011;38650;44.536;18.664;2022-09-27T02:45:47;8.50;;;7.13;;
52764;SDS011;38650;44.536;18.664;2022-09-27T02:53:37;7.55;;;6.13;;
52764;SDS011;38650;44.536;18.664;2022-09-27T03:06:35;9.27;;;8.38;;
52764;SDS011;38650;44.536;18.664;2022-09-27T03:09:11;7.80;;;7.07;;
52764;SDS011;38650;44.536;18.664;2022-09-27T03:11:47;7.05;;;6.35;;
52764;SDS011;38650;44.536;18.664;2022-09-27T03:14:13;6.50;;;5.90;;
52764;SDS011;38650;44.536;18.664;2022-09-27T03:16:39;7.05;;;6.13;;
52764;SDS011;38650;44.536;18.664;2022-09-27T03:19:05;6.25;;;5.65;;
52764;SDS011;38650;44.536;18.664;2022-09-27T03:21:30;8.43;;;6.75;;
52764;SDS011;38650;44.536;18.664;2022-09-27T03:23:56;6.20;;;5.60;;
52764;SDS011;38650;44.536;18.664;2022-09-27T03:26:22;5.95;;;5.43;;
52764;SDS011;38650;44.536;18.664;2022-09-27T03:28:47;5.57;;;5.07;;
52764;SDS011;38650;44.536;18.664;2022-09-27T03:31:13;5.32;;;4.82;;
52764;SDS011;38650;44.536;18.664;2022-09-27T03:33:39;5.40;;;4.88;;
52764;SDS011;38650;44.536;18.664;2022-09-27T03:36:05;5.18;;;4.68;;
52764;SDS011;38650;44.536;18.664;2022-09-27T03:38:31;5.35;;;4.95;;
52764;SDS011;38650;44.536;18.664;2022-09-27T03:40:57;4.90;;;4.50;;
52764;SDS011;38650;44.536;18.664;2022-09-27T03:43:23;4.75;;;4.38;;
52764;SDS011;38650;44.536;18.664;2022-09-27T03:45:49;4.57;;;3.95;;
52764;SDS011;38650;44.536;18.664;2022-09-27T03:48:15;4.35;;;3.95;;
52764;SDS011;38650;44.536;18.664;2022-09-27T03:50:40;4.60;;;4.20;;
52764;SDS011;38650;44.536;18.664;2022-09-27T03:53:06;4.78;;;4.22;;
52764;SDS011;38650;44.536;18.664;2022-09-27T03:55:32;5.35;;;4.53;;
52764;SDS011;38650;44.536;18.664;2022-09-27T03:57:59;6.15;;;5.30;;
52764;SDS011;38650;44.536;18.664;2022-09-27T04:00:25;5.40;;;4.90;;
52764;SDS011;38650;44.536;18.664;2022-09-27T04:02:50;5.22;;;4.72;;
52764;SDS011;38650;44.536;18.664;2022-09-27T04:05:16;5.22;;;4.72;;
52764;SDS011;38650;44.536;18.664;2022-09-27T04:07:48;6.35;;;5.60;;
52764;SDS011;38650;44.536;18.664;2022-09-27T04:10:14;5.97;;;5.38;;
52764;SDS011;38650;44.536;18.664;2022-09-27T04:12:40;5.50;;;5.00;;
52764;SDS011;38650;44.536;18.664;2022-09-27T04:15:06;9.48;;;7.05;;
52764;SDS011;38650;44.536;18.664;2022-09-27T04:17:32;9.70;;;7.88;;
52764;SDS011;38650;44.536;18.664;2022-09-27T04:19:58;7.95;;;7.10;;
52764;SDS011;38650;44.536;18.664;2022-09-27T04:22:26;13.20;;;10.48;;
52764;SDS011;38650;44.536;18.664;2022-09-27T04:24:52;12.07;;;9.85;;
52764;SDS011;38650;44.536;18.664;2022-09-27T04:27:18;9.20;;;7.95;;
52764;SDS011;38650;44.536;18.664;2022-09-27T04:29:44;8.10;;;7.30;;
52764;SDS011;38650;44.536;18.664;2022-09-27T04:32:10;7.25;;;6.55;;
52764;SDS011;38650;44.536;18.664;2022-09-27T04:34:37;6.97;;;6.28;;
52764;SDS011;38650;44.536;18.664;2022-09-27T04:37:21;11.52;;;8.60;;
52764;SDS011;38650;44.536;18.664;2022-09-27T04:39:46;9.23;;;7.78;;
52764;SDS011;38650;44.536;18.664;2022-09-27T04:42:13;14.63;;;9.00;;
52764;SDS011;38650;44.536;18.664;2022-09-27T04:44:39;8.43;;;7.63;;
52764;SDS011;38650;44.536;18.664;2022-09-27T04:47:05;9.73;;;8.48;;
52764;SDS011;38650;44.536;18.664;2022-09-27T04:49:31;8.18;;;7.38;;
52764;SDS011;38650;44.536;18.664;2022-09-27T04:51:56;18.08;;;10.05;;
52764;SDS011;38650;44.536;18.664;2022-09-27T04:54:22;26.77;;;12.27;;
52764;SDS011;38650;44.536;18.664;2022-09-27T04:56:48;11.48;;;9.20;;
52764;SDS011;38650;44.536;18.664;2022-09-27T04:59:14;10.57;;;9.38;;
52764;SDS011;38650;44.536;18.664;2022-09-27T05:01:39;73.45;;;18.05;;
52764;SDS011;38650;44.536;18.664;2022-09-27T05:04:05;18.25;;;11.70;;
52764;SDS011;38650;44.536;18.664;2022-09-27T05:06:31;18.10;;;10.45;;
52764;SDS011;38650;44.536;18.664;2022-09-27T05:08:56;38.35;;;11.30;;
52764;SDS011;38650;44.536;18.664;2022-09-27T05:11:22;15.40;;;10.57;;
52764;SDS011;38650;44.536;18.664;2022-09-27T05:13:48;15.23;;;9.68;;
52764;SDS011;38650;44.536;18.664;2022-09-27T05:16:14;19.55;;;10.50;;
52764;SDS011;38650;44.536;18.664;2022-09-27T05:18:41;22.33;;;11.07;;
52764;SDS011;38650;44.536;18.664;2022-09-27T05:21:07;10.38;;;8.13;;
52764;SDS011;38650;44.536;18.664;2022-09-27T05:23:32;33.17;;;11.60;;
52764;SDS011;38650;44.536;18.664;2022-09-27T05:26:02;8.10;;;7.10;;
52764;SDS011;38650;44.536;18.664;2022-09-27T05:28:29;8.05;;;6.75;;
52764;SDS011;38650;44.536;18.664;2022-09-27T05:30:55;11.93;;;7.30;;
52764;SDS011;38650;44.536;18.664;2022-09-27T05:33:21;14.27;;;8.27;;
52764;SDS011;38650;44.536;18.664;2022-09-27T05:35:53;38.83;;;10.85;;
52764;SDS011;38650;44.536;18.664;2022-09-27T05:38:19;8.02;;;7.22;;
52764;SDS011;38650;44.536;18.664;2022-09-27T05:40:45;6.97;;;6.07;;
52764;SDS011;38650;44.536;18.664;2022-09-27T05:43:14;5.72;;;5.22;;
52764;SDS011;38650;44.536;18.664;2022-09-27T05:45:40;5.90;;;5.30;;
52764;SDS011;38650;44.536;18.664;2022-09-27T05:48:07;6.53;;;5.93;;
52764;SDS011;38650;44.536;18.664;2022-09-27T05:50:33;5.68;;;5.07;;
52764;SDS011;38650;44.536;18.664;2022-09-27T05:52:58;5.13;;;4.72;;
52764;SDS011;38650;44.536;18.664;2022-09-27T05:55:24;5.60;;;5.10;;
52764;SDS011;38650;44.536;18.664;2022-09-27T05:58:02;6.47;;;5.88;;
52764;SDS011;38650;44.536;18.664;2022-09-27T06:00:30;7.80;;;7.03;;
52764;SDS011;38650;44.536;18.664;2022-09-27T06:02:57;6.53;;;5.93;;
52764;SDS011;38650;44.536;18.664;2022-09-27T06:05:25;6.97;;;6.32;;
52764;SDS011;38650;44.536;18.664;2022-09-27T06:07:56;7.78;;;7.07;;
52764;SDS011;38650;44.536;18.664;2022-09-27T06:10:27;6.80;;;6.20;;
52764;SDS011;38650;44.536;18.664;2022-09-27T06:12:58;6.03;;;5.53;;
52764;SDS011;38650;44.536;18.664;2022-09-27T06:15:26;5.97;;;5.47;;
52764;SDS011;38650;44.536;18.664;2022-09-27T06:17:52;5.30;;;4.90;;
52764;SDS011;38650;44.536;18.664;2022-09-27T06:20:18;9.45;;;8.48;;
52764;SDS011;38650;44.536;18.664;2022-09-27T06:22:45;7.78;;;6.97;;
52764;SDS011;38650;44.536;18.664;2022-09-27T06:25:11;7.88;;;7.18;;
52764;SDS011;38650;44.536;18.664;2022-09-27T06:27:37;6.32;;;5.80;;
52764;SDS011;38650;44.536;18.664;2022-09-27T06:30:03;8.07;;;7.28;;
52764;SDS011;38650;44.536;18.664;2022-09-27T06:32:29;9.35;;;7.70;;
52764;SDS011;38650;44.536;18.664;2022-09-27T06:34:56;6.88;;;6.28;;
52764;SDS011;38650;44.536;18.664;2022-09-27T06:37:25;6.88;;;6.25;;
52764;SDS011;38650;44.536;18.664;2022-09-27T06:39:51;7.60;;;6.80;;
52764;SDS011;38650;44.536;18.664;2022-09-27T06:42:18;10.80;;;9.70;;
52764;SDS011;38650;44.536;18.664;2022-09-27T06:44:44;10.43;;;9.35;;
52764;SDS011;38650;44.536;18.664;2022-09-27T06:47:14;8.93;;;8.13;;
52764;SDS011;38650;44.536;18.664;2022-09-27T06:49:41;7.22;;;6.63;;
52764;SDS011;38650;44.536;18.664;2022-09-27T06:52:06;6.47;;;5.88;;
52764;SDS011;38650;44.536;18.664;2022-09-27T06:54:32;7.35;;;6.75;;
52764;SDS011;38650;44.536;18.664;2022-09-27T06:57:01;7.13;;;6.43;;
52764;SDS011;38650;44.536;18.664;2022-09-27T06:59:30;7.15;;;6.53;;
52764;SDS011;38650;44.536;18.664;2022-09-27T07:02:14;7.00;;;6.30;;
52764;SDS011;38650;44.536;18.664;2022-09-27T07:04:40;7.13;;;6.53;;
52764;SDS011;38650;44.536;18.664;2022-09-27T07:07:06;7.07;;;6.47;;
52764;SDS011;38650;44.536;18.664;2022-09-27T07:09:32;5.93;;;5.43;;
52764;SDS011;38650;44.536;18.664;2022-09-27T07:11:57;7.45;;;5.40;;
52764;SDS011;38650;44.536;18.664;2022-09-27T07:14:24;5.63;;;5.22;;
52764;SDS011;38650;44.536;18.664;2022-09-27T07:16:50;5.57;;;5.10;;
52764;SDS011;38650;44.536;18.664;2022-09-27T07:19:16;4.95;;;4.50;;
52764;SDS011;38650;44.536;18.664;2022-09-27T07:21:42;4.88;;;4.47;;
52764;SDS011;38650;44.536;18.664;2022-09-27T07:24:09;5.72;;;5.22;;
52764;SDS011;38650;44.536;18.664;2022-09-27T07:26:34;5.25;;;4.50;;
52764;SDS011;38650;44.536;18.664;2022-09-27T07:29:00;4.95;;;4.45;;
52764;SDS011;38650;44.536;18.664;2022-09-27T07:31:26;4.30;;;4.00;;
52764;SDS011;38650;44.536;18.664;2022-09-27T07:33:52;4.63;;;4.10;;
52764;SDS011;38650;44.536;18.664;2022-09-27T07:36:18;5.03;;;4.63;;
52764;SDS011;38650;44.536;18.664;2022-09-27T07:38:44;4.50;;;4.10;;
52764;SDS011;38650;44.536;18.664;2022-09-27T07:41:10;5.43;;;4.93;;
52764;SDS011;38650;44.536;18.664;2022-09-27T07:43:41;6.07;;;5.57;;
52764;SDS011;38650;44.536;18.664;2022-09-27T07:46:10;5.78;;;5.28;;
52764;SDS011;38650;44.536;18.664;2022-09-27T07:48:37;6.03;;;5.43;;
52764;SDS011;38650;44.536;18.664;2022-09-27T07:51:02;6.20;;;4.80;;
52764;SDS011;38650;44.536;18.664;2022-09-27T07:53:31;6.18;;;5.57;;
52764;SDS011;38650;44.536;18.664;2022-09-27T07:55:57;5.90;;;5.40;;
52764;SDS011;38650;44.536;18.664;2022-09-27T07:58:23;8.82;;;7.93;;
52764;SDS011;38650;44.536;18.664;2022-09-27T08:00:49;8.48;;;7.70;;
52764;SDS011;38650;44.536;18.664;2022-09-27T08:03:15;11.75;;;10.57;;
52764;SDS011;38650;44.536;18.664;2022-09-27T08:05:42;9.70;;;8.80;;
52764;SDS011;38650;44.536;18.664;2022-09-27T08:08:09;10.80;;;9.75;;
52764;SDS011;38650;44.536;18.664;2022-09-27T08:10:35;10.05;;;9.07;;
52764;SDS011;38650;44.536;18.664;2022-09-27T08:13:01;12.40;;;11.20;;
52764;SDS011;38650;44.536;18.664;2022-09-27T08:15:30;10.40;;;9.40;;
52764;SDS011;38650;44.536;18.664;2022-09-27T08:17:57;9.10;;;8.25;;
52764;SDS011;38650;44.536;18.664;2022-09-27T08:20:23;8.57;;;7.80;;
52764;SDS011;38650;44.536;18.664;2022-09-27T08:22:49;7.93;;;7.10;;
52764;SDS011;38650;44.536;18.664;2022-09-27T08:25:15;7.30;;;6.70;;
52764;SDS011;38650;44.536;18.664;2022-09-27T08:27:41;7.78;;;7.07;;
52764;SDS011;38650;44.536;18.664;2022-09-27T08:30:07;9.95;;;9.05;;
52764;SDS011;38650;44.536;18.664;2022-09-27T08:32:33;7.75;;;7.05;;
52764;SDS011;38650;44.536;18.664;2022-09-27T08:34:59;6.60;;;6.10;;
52764;SDS011;38650;44.536;18.664;2022-09-27T08:37:24;8.90;;;7.97;;
52764;SDS011;38650;44.536;18.664;2022-09-27T08:39:50;8.20;;;7.35;;
52764;SDS011;38650;44.536;18.664;2022-09-27T08:49:50;8.50;;;7.80;;
52764;SDS011;38650;44.536;18.664;2022-09-27T08:52:37;7.45;;;6.85;;
52764;SDS011;38650;44.536;18.664;2022-09-27T08:55:48;10.80;;;9.80;;
52764;SDS011;38650;44.536;18.664;2022-09-27T09:00:52;11.02;;;10.02;;
52764;SDS011;38650;44.536;18.664;2022-09-27T09:03:23;10.95;;;9.90;;
52764;SDS011;38650;44.536;18.664;2022-09-27T09:09:01;7.72;;;7.13;;
52764;SDS011;38650;44.536;18.664;2022-09-27T09:14:54;6.38;;;5.78;;
52764;SDS011;38650;44.536;18.664;2022-09-27T09:31:57;4.40;;;4.05;;
52764;SDS011;38650;44.536;18.664;2022-09-27T09:34:34;4.40;;;4.00;;
52764;SDS011;38650;44.536;18.664;2022-09-27T09:39:49;5.10;;;4.70;;
52764;SDS011;38650;44.536;18.664;2022-09-27T09:42:34;4.63;;;4.22;;
52764;SDS011;38650;44.536;18.664;2022-09-27T09:48:18;4.57;;;4.18;;
52764;SDS011;38650;44.536;18.664;2022-09-27T09:50:52;5.30;;;4.80;;
52764;SDS011;38650;44.536;18.664;2022-09-27T09:56:34;7.93;;;7.10;;
52764;SDS011;38650;44.536;18.664;2022-09-27T09:59:14;7.22;;;6.55;;
52764;SDS011;38650;44.536;18.664;2022-09-27T10:01:55;8.10;;;7.32;;
52764;SDS011;38650;44.536;18.664;2022-09-27T10:04:39;8.50;;;7.25;;
52764;SDS011;38650;44.536;18.664;2022-09-27T10:07:04;8.15;;;7.35;;
52764;SDS011;38650;44.536;18.664;2022-09-27T10:09:32;8.20;;;7.40;;
52764;SDS011;38650;44.536;18.664;2022-09-27T10:11:58;11.48;;;8.77;;
52764;SDS011;38650;44.536;18.664;2022-09-27T10:14:24;7.53;;;6.80;;
52764;SDS011;38650;44.536;18.664;2022-09-27T10:16:55;8.30;;;7.45;;
52764;SDS011;38650;44.536;18.664;2022-09-27T10:19:27;9.85;;;8.60;;
52764;SDS011;38650;44.536;18.664;2022-09-27T10:22:00;32.75;;;18.80;;
52764;SDS011;38650;44.536;18.664;2022-09-27T10:24:28;28.58;;;19.30;;
52764;SDS011;38650;44.536;18.664;2022-09-27T10:26:58;36.47;;;21.98;;
52764;SDS011;38650;44.536;18.664;2022-09-27T10:29:29;27.60;;;19.10;;
52764;SDS011;38650;44.536;18.664;2022-09-27T10:31:58;27.30;;;18.40;;
52764;SDS011;38650;44.536;18.664;2022-09-27T10:34:32;36.40;;;21.25;;
52764;SDS011;38650;44.536;18.664;2022-09-27T10:39:38;23.25;;;17.73;;
52764;SDS011;38650;44.536;18.664;2022-09-27T10:45:21;27.60;;;18.25;;
52764;SDS011;38650;44.536;18.664;2022-09-27T10:47:57;21.30;;;13.77;;
52764;SDS011;38650;44.536;18.664;2022-09-27T10:50:31;16.35;;;11.98;;
52764;SDS011;38650;44.536;18.664;2022-09-27T10:55:58;14.80;;;10.40;;
52764;SDS011;38650;44.536;18.664;2022-09-27T10:58:29;26.83;;;19.60;;
52764;SDS011;38650;44.536;18.664;2022-09-27T11:01:01;22.90;;;16.40;;
52764;SDS011;38650;44.536;18.664;2022-09-27T11:03:38;16.42;;;12.70;;
52764;SDS011;38650;44.536;18.664;2022-09-27T11:06:44;20.23;;;13.38;;
52764;SDS011;38650;44.536;18.664;2022-09-27T11:12:09;14.40;;;11.75;;
52764;SDS011;38650;44.536;18.664;2022-09-27T11:14:37;19.90;;;14.68;;
52764;SDS011;38650;44.536;18.664;2022-09-27T11:17:12;17.85;;;13.38;;
52764;SDS011;38650;44.536;18.664;2022-09-27T11:19:52;22.10;;;15.45;;
52764;SDS011;38650;44.536;18.664;2022-09-27T11:25:38;18.43;;;14.60;;
52764;SDS011;38650;44.536;18.664;2022-09-27T11:37:32;14.23;;;10.73;;
52764;SDS011;38650;44.536;18.664;2022-09-27T11:43:21;10.23;;;9.05;;
52764;SDS011;38650;44.536;18.664;2022-09-27T11:51:11;8.98;;;8.07;;
52764;SDS011;38650;44.536;18.664;2022-09-27T11:59:06;6.57;;;5.88;;
52764;SDS011;38650;44.536;18.664;2022-09-27T12:09:56;6.30;;;5.70;;
52764;SDS011;38650;44.536;18.664;2022-09-27T12:12:30;4.97;;;4.50;;
52764;SDS011;38650;44.536;18.664;2022-09-27T12:17:28;3.72;;;3.35;;
52764;SDS011;38650;44.536;18.664;2022-09-27T12:19:57;4.70;;;4.30;;
52764;SDS011;38650;44.536;18.664;2022-09-27T12:22:28;4.15;;;3.75;;
52764;SDS011;38650;44.536;18.664;2022-09-27T12:25:02;5.32;;;4.82;;
52764;SDS011;38650;44.536;18.664;2022-09-27T12:30:28;4.53;;;4.10;;
52764;SDS011;38650;44.536;18.664;2022-09-27T12:33:01;4.55;;;4.15;;
52764;SDS011;38650;44.536;18.664;2022-09-27T12:35:43;3.67;;;3.33;;
52764;SDS011;38650;44.536;18.664;2022-09-27T12:38:15;3.85;;;3.33;;
52764;SDS011;38650;44.536;18.664;2022-09-27T12:40:50;4.40;;;4.00;;
52764;SDS011;38650;44.536;18.664;2022-09-27T12:51:16;4.22;;;3.92;;
52764;SDS011;38650;44.536;18.664;2022-09-27T12:56:25;3.50;;;3.20;;
52764;SDS011;38650;44.536;18.664;2022-09-27T12:58:58;3.97;;;3.58;;
52764;SDS011;38650;44.536;18.664;2022-09-27T13:04:13;3.20;;;2.90;;
52764;SDS011;38650;44.536;18.664;2022-09-27T13:07:01;3.20;;;2.72;;
52764;SDS011;38650;44.536;18.664;2022-09-27T13:12:15;3.47;;;2.60;;
52764;SDS011;38650;44.536;18.664;2022-09-27T13:18:04;1.92;;;1.83;;
52764;SDS011;38650;44.536;18.664;2022-09-27T13:22:58;2.78;;;2.40;;
52764;SDS011;38650;44.536;18.664;2022-09-27T13:31:03;3.17;;;2.88;;
52764;SDS011;38650;44.536;18.664;2022-09-27T13:33:32;2.13;;;1.92;;
52764;SDS011;38650;44.536;18.664;2022-09-27T13:38:56;1.20;;;1.10;;
52764;SDS011;38650;44.536;18.664;2022-09-27T13:49:29;1.05;;;1.00;;
52764;SDS011;38650;44.536;18.664;2022-09-27T13:52:01;1.25;;;1.17;;
52764;SDS011;38650;44.536;18.664;2022-09-27T13:54:38;1.80;;;1.00;;
52764;SDS011;38650;44.536;18.664;2022-09-27T14:00:02;1.30;;;1.20;;
52764;SDS011;38650;44.536;18.664;2022-09-27T14:02:35;1.65;;;1.55;;
52764;SDS011;38650;44.536;18.664;2022-09-27T14:05:03;1.65;;;1.55;;
52764;SDS011;38650;44.536;18.664;2022-09-27T14:07:39;1.80;;;1.70;;
52764;SDS011;38650;44.536;18.664;2022-09-27T14:10:16;1.40;;;1.30;;
52764;SDS011;38650;44.536;18.664;2022-09-27T14:12:45;1.52;;;1.42;;
52764;SDS011;38650;44.536;18.664;2022-09-27T14:15:27;1.90;;;1.80;;
52764;SDS011;38650;44.536;18.664;2022-09-27T14:17:54;1.48;;;1.38;;
52764;SDS011;38650;44.536;18.664;2022-09-27T14:20:28;1.75;;;1.65;;
52764;SDS011;38650;44.536;18.664;2022-09-27T14:23:04;1.70;;;1.60;;
52764;SDS011;38650;44.536;18.664;2022-09-27T14:25:30;2.03;;;1.90;;
52764;SDS011;38650;44.536;18.664;2022-09-27T14:27:56;3.40;;;3.10;;
52764;SDS011;38650;44.536;18.664;2022-09-27T14:30:25;4.22;;;3.83;;
52764;SDS011;38650;44.536;18.664;2022-09-27T14:32:53;3.55;;;3.25;;
52764;SDS011;38650;44.536;18.664;2022-09-27T14:35:25;2.97;;;2.78;;
52764;SDS011;38650;44.536;18.664;2022-09-27T14:38:15;2.20;;;2.00;;
52764;SDS011;38650;44.536;18.664;2022-09-27T14:40:54;2.35;;;2.15;;
52764;SDS011;38650;44.536;18.664;2022-09-27T14:45:57;2.58;;;2.38;;
52764;SDS011;38650;44.536;18.664;2022-09-27T14:51:02;1.90;;;1.80;;
52764;SDS011;38650;44.536;18.664;2022-09-27T14:53:35;1.75;;;1.65;;
52764;SDS011;38650;44.536;18.664;2022-09-27T14:56:16;4.20;;;3.90;;
52764;SDS011;38650;44.536;18.664;2022-09-27T14:58:51;4.70;;;4.28;;
52764;SDS011;38650;44.536;18.664;2022-09-27T15:01:22;3.92;;;3.60;;
52764;SDS011;38650;44.536;18.664;2022-09-27T15:03:48;3.83;;;3.53;;
52764;SDS011;38650;44.536;18.664;2022-09-27T15:06:17;3.35;;;3.05;;
52764;SDS011;38650;44.536;18.664;2022-09-27T15:08:44;2.78;;;2.58;;
52764;SDS011;38650;44.536;18.664;2022-09-27T15:11:13;3.08;;;2.78;;
52764;SDS011;38650;44.536;18.664;2022-09-27T15:13:40;3.00;;;2.60;;
52764;SDS011;38650;44.536;18.664;2022-09-27T15:16:07;12.43;;;11.23;;
52764;SDS011;38650;44.536;18.664;2022-09-27T15:18:42;6.30;;;5.70;;
52764;SDS011;38650;44.536;18.664;2022-09-27T15:21:11;16.90;;;15.15;;
52764;SDS011;38650;44.536;18.664;2022-09-27T15:23:57;27.48;;;23.75;;
52764;SDS011;38650;44.536;18.664;2022-09-27T15:26:32;31.33;;;28.02;;
52764;SDS011;38650;44.536;18.664;2022-09-27T15:29:05;27.50;;;24.75;;
52764;SDS011;38650;44.536;18.664;2022-09-27T15:31:39;20.60;;;18.60;;
52764;SDS011;38650;44.536;18.664;2022-09-27T15:34:05;24.65;;;22.25;;
52764;SDS011;38650;44.536;18.664;2022-09-27T15:39:16;25.67;;;22.83;;
52764;SDS011;38650;44.536;18.664;2022-09-27T15:42:01;46.35;;;37.08;;
52764;SDS011;38650;44.536;18.664;2022-09-27T15:44:46;61.93;;;47.20;;
52764;SDS011;38650;44.536;18.664;2022-09-27T15:52:41;38.88;;;32.80;;
52764;SDS011;38650;44.536;18.664;2022-09-27T15:55:13;31.85;;;27.67;;
52764;SDS011;38650;44.536;18.664;2022-09-27T15:57:39;20.05;;;17.95;;
52764;SDS011;38650;44.536;18.664;2022-09-27T16:00:06;22.42;;;19.50;;
52764;SDS011;38650;44.536;18.664;2022-09-27T16:02:37;26.67;;;23.67;;
52764;SDS011;38650;44.536;18.664;2022-09-27T16:05:02;14.60;;;13.20;;
52764;SDS011;38650;44.536;18.664;2022-09-27T16:07:28;13.45;;;11.63;;
52764;SDS011;38650;44.536;18.664;2022-09-27T16:09:54;12.48;;;10.27;;
52764;SDS011;38650;44.536;18.664;2022-09-27T16:12:20;10.05;;;9.02;;
52764;SDS011;38650;44.536;18.664;2022-09-27T16:14:46;10.70;;;9.60;;
52764;SDS011;38650;44.536;18.664;2022-09-27T16:17:12;13.73;;;11.95;;
52764;SDS011;38650;44.536;18.664;2022-09-27T16:19:38;19.73;;;16.33;;
52764;SDS011;38650;44.536;18.664;2022-09-27T16:22:04;26.55;;;22.25;;
52764;SDS011;38650;44.536;18.664;2022-09-27T16:24:30;21.27;;;18.08;;
52764;SDS011;38650;44.536;18.664;2022-09-27T16:26:56;23.08;;;19.85;;
52764;SDS011;38650;44.536;18.664;2022-09-27T16:29:22;20.40;;;18.20;;
52764;SDS011;38650;44.536;18.664;2022-09-27T16:31:48;32.92;;;29.38;;
52764;SDS011;38650;44.536;18.664;2022-09-27T16:34:14;32.88;;;28.67;;
52764;SDS011;38650;44.536;18.664;2022-09-27T16:36:41;31.50;;;28.02;;
52764;SDS011;38650;44.536;18.664;2022-09-27T16:39:09;44.70;;;39.45;;
52764;SDS011;38650;44.536;18.664;2022-09-27T16:41:39;50.90;;;45.35;;
52764;SDS011;38650;44.536;18.664;2022-09-27T16:44:10;44.67;;;39.97;;
52764;SDS011;38650;44.536;18.664;2022-09-27T16:46:41;34.42;;;30.90;;
52764;SDS011;38650;44.536;18.664;2022-09-27T16:49:10;45.20;;;40.28;;
52764;SDS011;38650;44.536;18.664;2022-09-27T16:51:54;47.75;;;42.15;;
52764;SDS011;38650;44.536;18.664;2022-09-27T16:54:26;78.45;;;66.78;;
52764;SDS011;38650;44.536;18.664;2022-09-27T16:56:56;69.95;;;56.88;;
52764;SDS011;38650;44.536;18.664;2022-09-27T16:59:23;56.42;;;48.67;;
52764;SDS011;38650;44.536;18.664;2022-09-27T17:01:49;54.58;;;46.35;;
52764;SDS011;38650;44.536;18.664;2022-09-27T17:04:15;57.17;;;46.92;;
52764;SDS011;38650;44.536;18.664;2022-09-27T17:06:41;61.53;;;52.85;;
52764;SDS011;38650;44.536;18.664;2022-09-27T17:09:07;70.40;;;58.90;;
52764;SDS011;38650;44.536;18.664;2022-09-27T17:11:33;78.57;;;64.93;;
52764;SDS011;38650;44.536;18.664;2022-09-27T17:13:59;104.30;;;80.30;;
52764;SDS011;38650;44.536;18.664;2022-09-27T17:16:24;143.73;;;110.15;;
52764;SDS011;38650;44.536;18.664;2022-09-27T17:18:50;191.90;;;136.60;;
52764;SDS011;38650;44.536;18.664;2022-09-27T17:21:16;209.73;;;143.75;;
52764;SDS011;38650;44.536;18.664;2022-09-27T17:23:42;245.45;;;159.77;;
52764;SDS011;38650;44.536;18.664;2022-09-27T17:28:47;135.25;;;102.45;;
52764;SDS011;38650;44.536;18.664;2022-09-27T17:31:14;113.45;;;89.43;;
52764;SDS011;38650;44.536;18.664;2022-09-27T17:33:43;92.75;;;76.10;;
52764;SDS011;38650;44.536;18.664;2022-09-27T17:36:12;92.18;;;79.68;;
52764;SDS011;38650;44.536;18.664;2022-09-27T17:38:39;78.07;;;65.10;;
52764;SDS011;38650;44.536;18.664;2022-09-27T17:41:06;64.72;;;54.78;;
52764;SDS011;38650;44.536;18.664;2022-09-27T17:43:40;61.55;;;52.75;;
52764;SDS011;38650;44.536;18.664;2022-09-27T17:46:14;72.35;;;58.83;;
52764;SDS011;38650;44.536;18.664;2022-09-27T17:48:41;82.45;;;68.95;;
52764;SDS011;38650;44.536;18.664;2022-09-27T17:51:25;74.97;;;60.60;;
52764;SDS011;38650;44.536;18.664;2022-09-27T17:53:51;62.42;;;54.03;;
52764;SDS011;38650;44.536;18.664;2022-09-27T17:56:17;47.20;;;42.05;;
52764;SDS011;38650;44.536;18.664;2022-09-27T17:58:49;43.70;;;39.00;;
52764;SDS011;38650;44.536;18.664;2022-09-27T18:01:19;40.75;;;36.22;;
52764;SDS011;38650;44.536;18.664;2022-09-27T18:03:47;39.83;;;33.75;;
52764;SDS011;38650;44.536;18.664;2022-09-27T18:06:16;44.55;;;38.17;;